Tillman, Indiana
Current Conditions -  °F | °C
As of 12:54 AM on Wednesday 26 Nov 2014 (Local Time) from KFWA Reporting Station
Overcast Overcast  
Wind Chill: 19°   Ceiling: 1400
Heat Index: 26°   Visibility: 10mi
Dew Point: 20°   Wind: 6mph
Humidity: 78%   Direction: 20°NNE
Pressure: 30.2"   Gusts: NA
Location:  40.9863°N, 84.8797°W
Report Text: KFWA 260554Z 02005KT 10SM OVC014 M03/M07 A3020 RMK AO2 SLP235 T10331067 11033 21039 58010
Loading
Personal Weather Stations






























Interactive Weather Map New forecast layout! Learn more

10-Day Weather Forecast

Advertisements
Track Severe Weather on mobile